Time;durP1;ratioP1;P1;durP2;ratioP2;P2;SDS_P1;SDS_P2;PMS_P1;PMS_P2;Temp;Humidity;BMP_temperature;BMP_pressure;BME280_temperature;BME280_humidity;BME280_pressure;Samples;Min_cycle;Max_cycle;Signal;HPM_P1;HPM_P2
2022/03/10 00:01:42;;;;;;;21.43;13.67;;;0.40;60.90;;;;;;5074698;28;20086;-71
2022/03/10 00:04:08;;;;;;;24.03;13.80;;;0.40;60.80;;;;;;5085756;28;20056;-71
2022/03/10 00:06:33;;;;;;;23.93;14.63;;;0.40;60.70;;;;;;5067561;28;20040;-71
2022/03/10 00:08:59;;;;;;;22.70;14.03;;;0.40;60.60;;;;;;5102468;28;20051;-71
2022/03/10 00:11:25;;;;;;;22.73;13.40;;;0.40;60.80;;;;;;5084637;28;20054;-71
2022/03/10 00:13:50;;;;;;;23.87;13.67;;;0.40;60.60;;;;;;5068758;28;20040;-72
2022/03/10 00:16:16;;;;;;;22.40;14.33;;;0.40;60.60;;;;;;5118788;28;20044;-72
2022/03/10 00:18:42;;;;;;;24.27;14.73;;;0.40;60.60;;;;;;5084552;28;20294;-72
2022/03/10 00:21:08;;;;;;;23.80;14.23;;;0.40;60.60;;;;;;5068463;28;20044;-71
2022/03/10 00:23:33;;;;;;;24.83;13.23;;;0.40;60.70;;;;;;5083745;28;20120;-71
2022/03/10 00:25:59;;;;;;;23.57;14.00;;;0.30;60.60;;;;;;5095673;28;20429;-71
2022/03/10 00:28:25;;;;;;;24.00;13.90;;;0.30;60.70;;;;;;5093422;28;20079;-71
2022/03/10 00:30:50;;;;;;;22.77;14.07;;;0.30;60.70;;;;;;5088853;28;20048;-71
2022/03/10 00:33:16;;;;;;;24.53;14.30;;;0.30;60.90;;;;;;5100999;28;20079;-71
2022/03/10 00:35:42;;;;;;;23.70;15.00;;;0.30;60.80;;;;;;5083118;28;20032;-71
2022/03/10 00:38:07;;;;;;;24.90;14.67;;;0.30;60.80;;;;;;5084141;28;20749;-71
2022/03/10 00:40:33;;;;;;;21.70;13.30;;;0.30;60.80;;;;;;5051733;28;20835;-71
2022/03/10 00:42:59;;;;;;;21.03;13.43;;;0.30;60.90;;;;;;5104911;28;20080;-71
2022/03/10 00:45:28;;;;;;;22.07;13.07;;;0.30;60.80;;;;;;5087913;28;20579;-71
2022/03/10 00:47:54;;;;;;;21.92;13.93;;;0.30;60.80;;;;;;5088731;28;20046;-71
2022/03/10 00:50:20;;;;;;;22.33;13.70;;;0.30;60.90;;;;;;5070984;28;20079;-71
2022/03/10 00:52:47;;;;;;;23.05;13.80;;;0.40;60.60;;;;;;5104599;28;20063;-71
2022/03/10 00:55:15;;;;;;;21.80;13.15;;;0.30;60.60;;;;;;5088502;28;20150;-71
2022/03/10 00:57:41;;;;;;;20.67;13.20;;;0.30;60.50;;;;;;5087943;28;20392;-71
2022/03/10 01:00:08;;;;;;;22.33;13.13;;;0.30;60.60;;;;;;5071359;28;20066;-71
2022/03/10 01:02:35;;;;;;;22.98;12.45;;;0.30;60.40;;;;;;5090540;28;20050;-71
2022/03/10 01:05:01;;;;;;;24.60;13.52;;;0.30;60.50;;;;;;5106319;27;20127;-71
2022/03/10 01:07:27;;;;;;;22.58;13.52;;;0.30;60.50;;;;;;5089086;28;20594;-71
2022/03/10 01:09:53;;;;;;;22.07;13.20;;;0.30;60.40;;;;;;5071411;28;20110;-71
2022/03/10 01:12:19;;;;;;;21.13;13.13;;;0.20;60.50;;;;;;5122282;27;20048;-71
2022/03/10 01:14:44;;;;;;;23.47;13.40;;;0.20;60.60;;;;;;5087779;28;20052;-72
2022/03/10 01:17:10;;;;;;;21.37;12.07;;;0.20;60.70;;;;;;5088347;28;20286;-71
2022/03/10 01:19:36;;;;;;;21.57;12.57;;;0.20;60.60;;;;;;5088292;28;20101;-71
2022/03/10 01:22:02;;;;;;;21.93;13.17;;;0.20;60.70;;;;;;5033367;28;20044;-71
2022/03/10 01:24:28;;;;;;;20.58;13.40;;;0.20;60.60;;;;;;5071595;28;20058;-71
2022/03/10 01:26:53;;;;;;;23.23;12.70;;;0.10;60.60;;;;;;5120647;27;20065;-71
2022/03/10 01:29:19;;;;;;;21.93;12.93;;;0.10;60.80;;;;;;5104619;28;20171;-71
2022/03/10 01:31:45;;;;;;;19.33;13.13;;;0.10;60.70;;;;;;5094700;28;20493;-71
2022/03/10 01:34:13;;;;;;;21.20;13.02;;;0.00;60.80;;;;;;5085913;28;20032;-71
2022/03/10 01:36:38;;;;;;;22.17;12.90;;;0.00;60.80;;;;;;5088157;28;20152;-71
2022/03/10 01:39:04;;;;;;;22.57;12.13;;;0.00;60.70;;;;;;5088372;28;20731;-71
2022/03/10 01:41:32;;;;;;;21.67;13.33;;;0.00;60.80;;;;;;5088088;28;20061;-71
2022/03/10 01:44:02;;;;;;;22.73;12.60;;;0.00;60.90;;;;;;5088100;28;20094;-72
2022/03/10 01:46:28;;;;;;;22.42;12.52;;;0.00;60.70;;;;;;5087382;28;20412;-72
2022/03/10 01:48:55;;;;;;;22.87;12.37;;;-0.10;60.70;;;;;;5070259;28;20050;-72
2022/03/10 01:51:22;;;;;;;20.45;12.55;;;-0.10;60.70;;;;;;5087344;28;20044;-72
2022/03/10 01:53:50;;;;;;;21.02;12.30;;;-0.10;60.70;;;;;;5118415;27;20057;-71
2022/03/10 01:56:16;;;;;;;18.92;12.35;;;-0.20;60.90;;;;;;5104345;28;20101;-71
2022/03/10 01:58:42;;;;;;;20.23;12.68;;;-0.20;60.90;;;;;;5124504;27;20403;-71
2022/03/10 02:01:11;;;;;;;20.40;12.47;;;-0.20;61.10;;;;;;5107139;28;20043;-72
2022/03/10 02:03:38;;;;;;;20.83;13.15;;;-0.20;61.10;;;;;;5093224;28;20040;-72
2022/03/10 02:06:04;;;;;;;21.25;12.68;;;-0.30;61.00;;;;;;5107324;28;20039;-71
2022/03/10 02:11:14;;;;;;;20.95;12.38;;;-0.20;61.10;;;;;;5122054;27;20575;-71
2022/03/10 02:13:40;;;;;;;21.47;11.77;;;-0.20;61.00;;;;;;5103888;28;20123;-71
2022/03/10 02:19:00;;;;;;;18.40;11.40;;;-0.20;61.00;;;;;;5090923;28;20054;-71
2022/03/10 02:21:26;;;;;;;19.02;11.93;;;-0.20;61.30;;;;;;5089344;28;20044;-71
2022/03/10 02:23:52;;;;;;;19.93;11.87;;;-0.20;61.10;;;;;;5105747;28;20480;-72
2022/03/10 02:26:19;;;;;;;19.70;11.50;;;-0.20;61.00;;;;;;5055296;27;20411;-72
2022/03/10 02:28:45;;;;;;;20.63;12.80;;;-0.20;61.10;;;;;;5112618;27;20396;-71
2022/03/10 02:31:11;;;;;;;19.45;12.07;;;-0.20;61.20;;;;;;5060837;28;20580;-71
2022/03/10 02:33:37;;;;;;;18.05;12.73;;;-0.20;61.30;;;;;;5071459;28;20708;-71
2022/03/10 02:36:04;;;;;;;20.65;12.07;;;-0.20;61.30;;;;;;5088323;28;20031;-71
2022/03/10 02:38:30;;;;;;;20.75;12.73;;;-0.20;61.30;;;;;;5077603;27;20063;-71
2022/03/10 02:40:56;;;;;;;24.83;12.73;;;-0.20;61.00;;;;;;5124749;27;20073;-71
2022/03/10 02:43:23;;;;;;;22.88;13.18;;;-0.20;61.20;;;;;;5076935;28;20515;-71
2022/03/10 02:45:49;;;;;;;21.70;12.20;;;-0.30;61.10;;;;;;5123234;27;20046;-71
2022/03/10 02:48:16;;;;;;;22.85;12.75;;;-0.30;61.20;;;;;;5089739;28;20043;-71
2022/03/10 02:50:43;;;;;;;21.95;13.32;;;-0.20;61.10;;;;;;5072906;28;20069;-71
2022/03/10 02:53:10;;;;;;;20.15;13.18;;;-0.30;61.10;;;;;;5097726;28;20423;-71
2022/03/10 02:55:37;;;;;;;22.67;12.77;;;-0.30;61.20;;;;;;5100460;28;20040;-71
2022/03/10 02:58:03;;;;;;;22.98;13.13;;;-0.30;61.00;;;;;;5106447;28;20394;-71
2022/03/10 03:00:29;;;;;;;20.05;13.07;;;-0.40;61.10;;;;;;5094718;28;20567;-71
2022/03/10 03:02:55;;;;;;;25.50;14.15;;;-0.40;61.10;;;;;;5096883;28;20047;-71
2022/03/10 03:05:20;;;;;;;21.67;13.40;;;-0.50;61.20;;;;;;5058415;28;20399;-71
2022/03/10 03:07:48;;;;;;;22.67;13.80;;;-0.50;61.10;;;;;;5075686;28;20071;-71
2022/03/10 03:10:14;;;;;;;22.73;13.60;;;-0.60;61.40;;;;;;5094295;28;20092;-71
2022/03/10 03:12:46;;;;;;;24.58;13.00;;;-0.60;61.70;;;;;;5106909;28;20039;-71
2022/03/10 03:15:11;;;;;;;22.70;13.68;;;-0.60;61.50;;;;;;5079132;28;20043;-71
2022/03/10 03:17:37;;;;;;;23.57;13.20;;;-0.60;61.40;;;;;;5089813;28;20096;-71
2022/03/10 03:20:04;;;;;;;23.03;13.50;;;-0.70;61.40;;;;;;5086790;28;20035;-71
2022/03/10 03:22:31;;;;;;;22.23;13.90;;;-0.70;61.40;;;;;;5084530;28;20047;-71
2022/03/10 03:24:57;;;;;;;22.45;13.60;;;-0.70;61.30;;;;;;5087946;28;20035;-71
2022/03/10 03:27:23;;;;;;;22.65;14.23;;;-0.70;61.30;;;;;;5123512;27;20035;-71
2022/03/10 03:29:48;;;;;;;22.77;13.63;;;-0.70;61.40;;;;;;5105149;28;20084;-71
2022/03/10 03:32:14;;;;;;;22.47;14.70;;;-0.80;61.30;;;;;;5088007;28;20052;-71
2022/03/10 03:34:40;;;;;;;23.53;13.80;;;-0.80;61.60;;;;;;5084884;28;20047;-71
2022/03/10 03:37:05;;;;;;;24.30;14.73;;;-0.70;61.40;;;;;;5093079;28;20039;-72
2022/03/10 03:39:31;;;;;;;24.37;14.70;;;-0.80;61.40;;;;;;5092001;28;20036;-72
2022/03/10 03:41:57;;;;;;;23.53;13.53;;;-0.80;61.50;;;;;;5104146;28;20165;-72
2022/03/10 03:44:23;;;;;;;21.93;13.23;;;-0.80;61.50;;;;;;5090749;28;20516;-71
2022/03/10 03:46:48;;;;;;;22.15;13.27;;;-0.80;61.50;;;;;;5121936;27;20040;-71
2022/03/10 03:49:14;;;;;;;23.30;14.90;;;-0.80;61.60;;;;;;5105214;28;20122;-72
2022/03/10 03:51:40;;;;;;;22.87;14.20;;;-0.80;61.70;;;;;;5105275;28;20062;-71
2022/03/10 03:54:07;;;;;;;23.57;14.40;;;-0.80;61.60;;;;;;5070015;28;20043;-71
2022/03/10 03:56:35;;;;;;;21.58;13.23;;;-0.80;61.80;;;;;;5093311;28;20050;-71
2022/03/10 03:59:01;;;;;;;25.38;14.48;;;-0.80;62.10;;;;;;5092426;28;20568;-71
2022/03/10 04:01:27;;;;;;;23.87;14.13;;;-0.70;62.10;;;;;;5080834;28;20118;-71
2022/03/10 04:03:54;;;;;;;23.77;13.97;;;-0.70;62.10;;;;;;5102053;28;20085;-71
2022/03/10 04:06:19;;;;;;;24.90;13.73;;;-0.60;62.20;;;;;;5093500;28;20325;-71
2022/03/10 04:08:45;;;;;;;22.67;14.33;;;-0.60;61.80;;;;;;5079156;28;20407;-71
2022/03/10 04:11:11;;;;;;;23.23;13.73;;;-0.60;62.10;;;;;;5105500;28;20559;-71
2022/03/10 04:13:37;;;;;;;24.27;14.02;;;-0.60;62.10;;;;;;5090307;28;20074;-71
2022/03/10 04:16:03;;;;;;;24.30;14.90;;;-0.60;62.00;;;;;;5075794;28;20498;-71
2022/03/10 04:18:29;;;;;;;21.85;13.77;;;-0.60;62.00;;;;;;5110453;28;20071;-71
2022/03/10 04:20:59;;;;;;;22.92;14.82;;;-0.50;61.80;;;;;;5091959;28;20040;-71
2022/03/10 04:23:26;;;;;;;25.67;14.85;;;-0.50;61.80;;;;;;5100811;28;20043;-71
2022/03/10 04:25:52;;;;;;;25.33;14.25;;;-0.50;61.60;;;;;;5105427;28;20036;-71
2022/03/10 04:28:18;;;;;;;23.23;15.18;;;-0.50;61.50;;;;;;5101323;28;20389;-71
2022/03/10 04:30:44;;;;;;;22.97;14.60;;;-0.50;61.60;;;;;;5076573;28;20436;-71
2022/03/10 04:33:10;;;;;;;22.47;13.80;;;-0.50;61.50;;;;;;5101076;28;20092;-71
2022/03/10 04:35:36;;;;;;;22.67;13.57;;;-0.50;61.40;;;;;;5125707;27;20048;-71
2022/03/10 04:38:01;;;;;;;23.23;14.37;;;-0.50;61.50;;;;;;5110422;27;20031;-71
2022/03/10 04:40:27;;;;;;;23.37;13.60;;;-0.50;61.40;;;;;;5095725;28;20040;-71
2022/03/10 04:42:54;;;;;;;21.63;14.00;;;-0.50;61.20;;;;;;5079665;28;20074;-71
2022/03/10 04:45:21;;;;;;;23.10;13.73;;;-0.50;61.30;;;;;;5077197;28;20094;-71
2022/03/10 04:47:46;;;;;;;23.08;13.60;;;-0.50;61.30;;;;;;5092617;28;20044;-71
2022/03/10 04:50:13;;;;;;;24.23;13.83;;;-0.50;61.30;;;;;;5100158;28;20495;-71
2022/03/10 04:52:39;;;;;;;23.63;13.98;;;-0.50;61.30;;;;;;5056648;28;20101;-71
2022/03/10 04:55:06;;;;;;;22.10;13.80;;;-0.50;61.50;;;;;;5123318;27;20047;-71
2022/03/10 04:57:32;;;;;;;25.23;14.02;;;-0.50;61.30;;;;;;5126103;27;20044;-71
2022/03/10 04:59:58;;;;;;;21.52;13.52;;;-0.50;61.30;;;;;;5101230;27;20047;-71
2022/03/10 05:02:23;;;;;;;24.87;14.33;;;-0.50;61.30;;;;;;5101368;28;20050;-71
2022/03/10 05:04:49;;;;;;;23.17;13.77;;;-0.50;61.40;;;;;;5109025;28;20126;-71
2022/03/10 05:07:15;;;;;;;23.33;13.77;;;-0.50;61.30;;;;;;5108977;28;20047;-71
2022/03/10 05:09:40;;;;;;;22.93;14.33;;;-0.60;61.40;;;;;;5089553;28;20443;-71
2022/03/10 05:12:06;;;;;;;24.70;15.13;;;-0.60;61.40;;;;;;5091841;28;20123;-71
2022/03/10 05:14:32;;;;;;;22.92;14.43;;;-0.60;61.70;;;;;;5092696;28;20145;-71
2022/03/10 05:16:58;;;;;;;24.13;14.40;;;-0.70;61.70;;;;;;5105676;27;20738;-71
2022/03/10 05:19:24;;;;;;;24.23;13.53;;;-0.70;62.00;;;;;;5109239;28;20479;-71
2022/03/10 05:21:50;;;;;;;23.47;14.53;;;-0.70;62.10;;;;;;5108190;28;20035;-71
2022/03/10 05:24:16;;;;;;;23.40;14.23;;;-0.70;62.30;;;;;;5108341;28;20149;-71
2022/03/10 05:26:42;;;;;;;25.33;13.77;;;-0.70;62.00;;;;;;5081731;28;20092;-71
2022/03/10 05:29:07;;;;;;;26.07;15.13;;;-0.70;62.00;;;;;;5105145;28;20472;-71
2022/03/10 05:31:33;;;;;;;22.90;13.50;;;-0.70;62.00;;;;;;5077212;28;20067;-71
2022/03/10 05:33:59;;;;;;;23.17;14.07;;;-0.70;62.00;;;;;;5073642;28;20552;-71
2022/03/10 05:36:25;;;;;;;25.10;14.73;;;-0.70;62.30;;;;;;5091606;28;20136;-71
2022/03/10 05:38:50;;;;;;;25.17;15.23;;;-0.70;62.20;;;;;;5076251;28;20039;-71
2022/03/10 05:41:16;;;;;;;22.73;14.87;;;-0.70;62.10;;;;;;5097807;27;20316;-71
2022/03/10 05:43:42;;;;;;;24.17;14.27;;;-0.80;62.50;;;;;;5079858;28;20035;-71
2022/03/10 05:46:08;;;;;;;23.75;14.55;;;-0.80;62.20;;;;;;5114828;27;20071;-71
2022/03/10 05:48:34;;;;;;;26.23;14.37;;;-0.80;62.30;;;;;;5085637;28;20083;-71
2022/03/10 05:50:59;;;;;;;23.83;14.87;;;-0.80;62.50;;;;;;5074868;28;20509;-71
2022/03/10 05:53:26;;;;;;;23.13;15.00;;;-0.80;62.30;;;;;;5108253;28;20158;-71
2022/03/10 05:55:52;;;;;;;22.25;14.30;;;-0.80;62.40;;;;;;5077049;28;20476;-71
2022/03/10 05:58:18;;;;;;;26.23;15.30;;;-0.70;62.30;;;;;;5107591;28;20063;-71
2022/03/10 06:00:44;;;;;;;25.60;15.13;;;-0.70;62.10;;;;;;5111075;27;20526;-71
2022/03/10 06:03:10;;;;;;;26.35;15.13;;;-0.70;62.10;;;;;;5076697;28;20054;-71
2022/03/10 06:05:36;;;;;;;27.35;16.20;;;-0.70;62.30;;;;;;5103112;28;20040;-71
2022/03/10 06:08:02;;;;;;;23.47;13.70;;;-0.70;62.20;;;;;;5109794;27;20560;-71
2022/03/10 06:10:28;;;;;;;25.50;14.80;;;-0.70;62.00;;;;;;5066286;27;20043;-71
2022/03/10 06:12:53;;;;;;;28.02;15.23;;;-0.70;62.20;;;;;;5100961;28;20042;-71
2022/03/10 06:15:19;;;;;;;25.03;15.53;;;-0.80;62.40;;;;;;5093637;27;20464;-71
2022/03/10 06:17:45;;;;;;;24.87;14.73;;;-0.80;62.40;;;;;;5106409;28;20085;-71
2022/03/10 06:20:11;;;;;;;23.90;14.57;;;-0.80;62.40;;;;;;5124136;27;20449;-71
2022/03/10 06:22:37;;;;;;;24.42;14.80;;;-0.80;62.90;;;;;;5102486;28;20119;-71
2022/03/10 06:25:04;;;;;;;26.00;14.98;;;-0.90;62.70;;;;;;5105542;28;20526;-71
2022/03/10 06:27:30;;;;;;;26.25;15.45;;;-0.90;62.80;;;;;;5072880;28;20106;-71
2022/03/10 06:29:56;;;;;;;26.52;14.85;;;-0.90;62.90;;;;;;5070365;28;20048;-71
2022/03/10 06:32:24;;;;;;;24.70;15.33;;;-0.90;63.10;;;;;;5106912;28;20043;-71
2022/03/10 06:34:52;;;;;;;25.88;14.82;;;-0.80;63.20;;;;;;5123966;27;20043;-71
2022/03/10 06:37:21;;;;;;;21.92;14.05;;;-0.80;63.30;;;;;;5066442;28;20044;-71
2022/03/10 06:39:46;;;;;;;25.58;14.93;;;-0.80;63.30;;;;;;5066932;28;20045;-72
2022/03/10 06:42:14;;;;;;;23.63;15.33;;;-0.70;63.40;;;;;;5071470;28;20039;-72
2022/03/10 06:44:40;;;;;;;25.38;14.68;;;-0.70;63.10;;;;;;5089361;28;20044;-71
2022/03/10 06:47:08;;;;;;;24.48;14.43;;;-0.70;63.00;;;;;;5090458;28;20035;-71
2022/03/10 06:49:33;;;;;;;34.53;16.83;;;-0.60;63.30;;;;;;5072578;28;20056;-71
2022/03/10 06:51:59;;;;;;;26.43;15.77;;;-0.50;63.30;;;;;;5100918;28;20448;-71
2022/03/10 06:54:25;;;;;;;27.03;15.83;;;-0.50;63.30;;;;;;5061872;28;20092;-71
2022/03/10 06:56:51;;;;;;;24.08;15.40;;;-0.40;63.30;;;;;;5078569;28;20058;-71
2022/03/10 06:59:17;;;;;;;27.75;15.82;;;-0.30;63.20;;;;;;5101817;28;20130;-71
2022/03/10 07:01:43;;;;;;;27.27;15.17;;;-0.20;63.00;;;;;;5116768;27;20480;-71
2022/03/10 07:04:09;;;;;;;27.77;16.20;;;-0.10;62.70;;;;;;5124756;27;20051;-71
2022/03/10 07:06:35;;;;;;;25.92;15.27;;;0.00;62.60;;;;;;5089095;28;20055;-71
2022/03/10 07:09:01;;;;;;;28.17;16.10;;;0.10;62.50;;;;;;5063065;28;20035;-71
2022/03/10 07:11:27;;;;;;;23.85;15.50;;;0.20;62.20;;;;;;5090329;28;20035;-71
2022/03/10 07:13:53;;;;;;;27.57;15.43;;;0.30;61.90;;;;;;5106190;28;20043;-71
2022/03/10 07:16:19;;;;;;;26.80;15.63;;;0.40;61.90;;;;;;5105492;28;20043;-71
2022/03/10 07:18:50;;;;;;;24.97;15.43;;;0.50;61.90;;;;;;5089363;28;20040;-71
2022/03/10 07:21:20;;;;;;;24.63;15.27;;;0.60;61.90;;;;;;5089505;28;20082;-71
2022/03/10 07:23:47;;;;;;;28.40;15.65;;;0.70;61.80;;;;;;5090249;28;20120;-71
2022/03/10 07:26:13;;;;;;;24.13;14.75;;;0.80;61.80;;;;;;5073164;28;20043;-71
2022/03/10 07:28:39;;;;;;;24.95;15.43;;;0.80;61.70;;;;;;5090584;28;20040;-71
2022/03/10 07:31:05;;;;;;;28.35;15.70;;;0.90;61.80;;;;;;5119422;27;20043;-71
2022/03/10 07:33:31;;;;;;;26.10;15.63;;;1.10;61.70;;;;;;5071907;28;20479;-71
2022/03/10 07:35:57;;;;;;;26.23;15.50;;;1.10;61.60;;;;;;5071653;28;20082;-71
2022/03/10 07:38:23;;;;;;;26.08;14.60;;;1.30;61.40;;;;;;5072727;28;20281;-71
2022/03/10 07:40:49;;;;;;;24.07;15.23;;;1.40;61.40;;;;;;5095801;28;20048;-72
2022/03/10 07:43:15;;;;;;;24.60;15.30;;;1.50;61.20;;;;;;5088273;28;20097;-72
2022/03/10 07:45:40;;;;;;;24.58;14.32;;;1.60;61.00;;;;;;5072158;28;20081;-72
2022/03/10 07:48:06;;;;;;;25.67;15.17;;;1.80;60.70;;;;;;5111809;28;20129;-72
2022/03/10 07:50:32;;;;;;;24.17;14.23;;;1.90;60.70;;;;;;5068521;28;20101;-72
2022/03/10 07:52:58;;;;;;;24.50;14.07;;;2.00;60.60;;;;;;5096467;28;20528;-72
2022/03/10 07:55:23;;;;;;;23.20;14.73;;;2.20;60.20;;;;;;5086250;28;20119;-72
2022/03/10 07:57:49;;;;;;;23.47;15.27;;;2.30;60.00;;;;;;5112123;28;20124;-72
2022/03/10 08:00:15;;;;;;;25.70;15.17;;;2.40;59.90;;;;;;5094031;28;20118;-72
2022/03/10 08:02:42;;;;;;;21.25;14.20;;;2.50;60.10;;;;;;5081843;28;20036;-72
2022/03/10 08:05:08;;;;;;;28.08;16.50;;;2.60;60.10;;;;;;5081828;28;20487;-72
2022/03/10 08:07:34;;;;;;;23.42;14.07;;;2.70;60.30;;;;;;5095757;28;20077;-72
2022/03/10 08:10:04;;;;;;;23.23;14.98;;;2.80;60.30;;;;;;5112346;28;20394;-72
2022/03/10 08:12:32;;;;;;;25.58;15.80;;;2.90;60.30;;;;;;5076289;28;20479;-72
2022/03/10 08:14:58;;;;;;;24.10;14.82;;;3.10;60.20;;;;;;5081719;28;20051;-72
2022/03/10 08:17:25;;;;;;;25.33;14.40;;;3.20;60.20;;;;;;5066516;28;20075;-72
2022/03/10 08:19:52;;;;;;;25.15;15.55;;;3.30;60.00;;;;;;5090027;28;20495;-72
2022/03/10 08:22:18;;;;;;;23.95;14.48;;;3.50;59.10;;;;;;5129975;27;20071;-72
2022/03/10 08:24:45;;;;;;;24.33;15.05;;;3.60;59.20;;;;;;5078726;28;20036;-72
2022/03/10 08:27:11;;;;;;;24.35;15.40;;;3.80;58.80;;;;;;5075183;28;20167;-72
2022/03/10 08:29:37;;;;;;;26.20;15.32;;;3.90;58.60;;;;;;5095036;28;20057;-72
2022/03/10 08:32:03;;;;;;;27.17;14.88;;;4.00;58.60;;;;;;5079001;28;20072;-72
2022/03/10 08:34:30;;;;;;;24.13;15.52;;;4.20;58.10;;;;;;5098495;28;20050;-72
2022/03/10 08:36:57;;;;;;;24.10;14.20;;;4.30;57.20;;;;;;5088445;28;20051;-72
2022/03/10 08:39:22;;;;;;;25.02;14.93;;;4.40;56.90;;;;;;5087688;28;20339;-72
2022/03/10 08:41:49;;;;;;;23.60;15.20;;;4.50;56.60;;;;;;5105282;28;20447;-72
2022/03/10 08:44:15;;;;;;;23.38;13.98;;;4.70;56.40;;;;;;5077843;28;20067;-72
2022/03/10 08:46:41;;;;;;;25.55;15.40;;;4.80;56.10;;;;;;5072778;28;20046;-72
2022/03/10 08:49:07;;;;;;;23.83;14.63;;;4.90;56.10;;;;;;5095866;28;20487;-72
2022/03/10 08:51:33;;;;;;;26.08;15.40;;;5.10;56.10;;;;;;5100099;28;20047;-72
2022/03/10 08:53:59;;;;;;;22.40;14.77;;;5.20;55.00;;;;;;5081018;28;20035;-72
2022/03/10 08:56:24;;;;;;;21.53;14.00;;;5.30;54.70;;;;;;5089323;28;20050;-72
2022/03/10 08:58:50;;;;;;;24.43;15.07;;;5.50;54.90;;;;;;5080513;28;20730;-72
2022/03/10 09:01:16;;;;;;;23.73;14.40;;;5.60;54.50;;;;;;5082333;27;20499;-72
2022/03/10 09:03:42;;;;;;;24.80;14.77;;;5.70;54.60;;;;;;5076354;28;20549;-72
2022/03/10 09:06:10;;;;;;;24.15;14.75;;;5.90;53.70;;;;;;5080041;28;20115;-72
2022/03/10 09:08:36;;;;;;;24.42;14.55;;;6.00;52.90;;;;;;5065950;28;20292;-72
2022/03/10 09:11:03;;;;;;;22.08;14.20;;;6.10;52.60;;;;;;5096835;28;20534;-72
2022/03/10 09:13:28;;;;;;;21.55;14.23;;;6.30;52.60;;;;;;5102019;28;20508;-72
2022/03/10 09:15:54;;;;;;;24.13;14.53;;;6.40;52.90;;;;;;5082200;28;20052;-72
2022/03/10 09:18:20;;;;;;;22.93;14.67;;;6.60;52.00;;;;;;5085171;28;20050;-72
2022/03/10 09:20:46;;;;;;;23.50;15.40;;;6.70;52.50;;;;;;5091748;28;20075;-72
2022/03/10 09:23:11;;;;;;;24.47;15.53;;;6.80;52.40;;;;;;5097322;28;20039;-72
2022/03/10 09:25:38;;;;;;;24.60;15.57;;;7.00;52.30;;;;;;5074846;28;20426;-72
2022/03/10 09:28:04;;;;;;;25.30;15.35;;;7.10;52.30;;;;;;5080059;28;20434;-72
2022/03/10 09:30:30;;;;;;;24.90;14.75;;;7.20;51.70;;;;;;5083448;27;20044;-72
2022/03/10 09:32:57;;;;;;;22.05;14.75;;;7.40;51.60;;;;;;5086874;27;20039;-72
2022/03/10 09:35:24;;;;;;;25.45;15.70;;;7.50;51.60;;;;;;5094808;27;20104;-72
2022/03/10 09:37:49;;;;;;;24.35;16.23;;;7.60;50.80;;;;;;5084526;28;20049;-72
2022/03/10 09:40:15;;;;;;;23.60;14.90;;;7.80;50.90;;;;;;5074851;28;20044;-72
2022/03/10 09:42:42;;;;;;;23.43;15.00;;;8.00;50.70;;;;;;5094775;28;20036;-72
2022/03/10 09:45:10;;;;;;;24.63;16.45;;;8.10;50.90;;;;;;5124392;27;20127;-72
2022/03/10 09:47:38;;;;;;;25.25;15.13;;;8.30;50.70;;;;;;5061991;28;20058;-72
2022/03/10 09:50:06;;;;;;;26.48;16.17;;;8.40;50.20;;;;;;5125253;27;20498;-72
2022/03/10 09:52:32;;;;;;;25.52;15.95;;;8.60;50.10;;;;;;5092126;28;20453;-72
2022/03/10 09:54:59;;;;;;;24.10;15.10;;;8.80;50.30;;;;;;5087403;28;20123;-72
2022/03/10 09:57:25;;;;;;;26.13;16.13;;;9.00;50.00;;;;;;5080692;28;20463;-72
2022/03/10 09:59:58;;;;;;;25.48;15.73;;;9.10;49.90;;;;;;5074004;28;20044;-72
2022/03/10 10:02:27;;;;;;;24.40;15.85;;;9.30;49.60;;;;;;5082761;28;20040;-72
2022/03/10 10:04:53;;;;;;;26.65;16.80;;;9.40;49.10;;;;;;5082335;28;20356;-72
2022/03/10 10:07:21;;;;;;;24.90;15.27;;;9.50;48.10;;;;;;5076328;28;20065;-72
2022/03/10 10:09:56;;;;;;;22.83;15.52;;;9.70;48.10;;;;;;5090525;28;20035;-72
2022/03/10 10:12:29;;;;;;;26.15;16.52;;;9.80;47.90;;;;;;5106283;28;20039;-72
2022/03/10 10:14:57;;;;;;;25.67;16.52;;;9.90;48.00;;;;;;5078178;28;20040;-73
2022/03/10 10:17:31;;;;;;;23.70;16.02;;;10.00;47.80;;;;;;5076655;28;20046;-73
2022/03/10 10:19:58;;;;;;;23.70;16.65;;;10.10;48.40;;;;;;5084883;28;20071;-73
2022/03/10 10:22:25;;;;;;;26.85;17.52;;;10.30;48.70;;;;;;5124431;27;20047;-73
2022/03/10 10:24:59;;;;;;;24.73;15.90;;;10.40;48.30;;;;;;5124503;27;20039;-73
2022/03/10 10:27:35;;;;;;;27.17;17.77;;;10.60;48.20;;;;;;5124514;27;20096;-73
2022/03/10 10:30:06;;;;;;;26.08;17.05;;;10.70;48.00;;;;;;5098715;28;20079;-73
2022/03/10 10:32:45;;;;;;;26.67;16.98;;;10.80;47.70;;;;;;5124555;27;20155;-73
2022/03/10 10:35:14;;;;;;;23.63;16.35;;;10.90;47.70;;;;;;5075248;28;20043;-73
2022/03/10 10:37:44;;;;;;;26.38;16.77;;;11.10;47.80;;;;;;5085745;28;20039;-73
2022/03/10 10:40:10;;;;;;;26.52;16.60;;;11.10;46.90;;;;;;5124814;27;20104;-73
2022/03/10 10:42:39;;;;;;;27.02;17.13;;;11.10;46.90;;;;;;5100060;28;20140;-73
2022/03/10 10:45:26;;;;;;;25.90;17.15;;;11.00;47.30;;;;;;5106681;28;20506;-73
2022/03/10 10:48:05;;;;;;;27.88;17.55;;;10.90;47.20;;;;;;5091472;28;20090;-73
2022/03/10 10:50:33;;;;;;;26.00;16.38;;;10.80;47.80;;;;;;5123964;27;20103;-73
2022/03/10 10:52:59;;;;;;;26.45;17.00;;;10.90;47.60;;;;;;5100512;28;20075;-73
2022/03/10 10:55:41;;;;;;;27.77;17.60;;;11.00;48.00;;;;;;5089671;28;20086;-73
2022/03/10 10:58:15;;;;;;;26.73;16.55;;;11.10;47.00;;;;;;5118477;27;20673;-73
2022/03/10 11:00:47;;;;;;;29.77;17.40;;;11.30;47.10;;;;;;5124159;27;20058;-73
2022/03/10 11:03:20;;;;;;;29.05;17.25;;;11.50;46.30;;;;;;5090792;28;20040;-73
2022/03/10 11:05:48;;;;;;;29.63;18.60;;;11.60;46.50;;;;;;5091880;28;20499;-73
2022/03/10 11:08:20;;;;;;;31.58;19.02;;;11.70;45.10;;;;;;5072576;28;20426;-73
2022/03/10 11:10:46;;;;;;;28.80;18.40;;;11.80;45.60;;;;;;5072571;28;20059;-73
2022/03/10 11:13:12;;;;;;;28.13;18.15;;;11.90;45.20;;;;;;5076687;28;20115;-73
2022/03/10 11:15:38;;;;;;;28.90;17.80;;;11.90;45.50;;;;;;5082043;28;20071;-73
2022/03/10 11:18:04;;;;;;;25.85;17.48;;;11.90;45.00;;;;;;5084124;28;20035;-73
2022/03/10 11:20:32;;;;;;;24.33;17.58;;;11.90;45.70;;;;;;5073296;28;20075;-73
2022/03/10 11:23:28;;;;;;;25.30;17.35;;;11.90;44.80;;;;;;5081218;28;20071;-73
2022/03/10 11:26:43;;;;;;;28.30;17.85;;;11.90;45.10;;;;;;5129090;27;20043;-71
2022/03/10 11:29:10;;;;;;;25.95;17.35;;;11.90;44.70;;;;;;5082235;28;20555;-71
2022/03/10 11:31:36;;;;;;;31.50;18.35;;;11.80;45.70;;;;;;5083705;28;20047;-71
2022/03/10 11:34:02;;;;;;;28.57;18.60;;;11.90;45.20;;;;;;5106968;28;20392;-71
2022/03/10 11:36:30;;;;;;;29.33;17.60;;;11.90;44.70;;;;;;5067960;28;20481;-70
2022/03/10 11:39:04;;;;;;;26.38;17.40;;;11.80;45.00;;;;;;5121575;27;20086;-70
2022/03/10 11:41:44;;;;;;;29.88;18.27;;;11.80;44.90;;;;;;5079664;28;20066;-70
2022/03/10 11:44:11;;;;;;;27.88;18.38;;;12.00;44.30;;;;;;5122538;27;20093;-70
2022/03/10 11:46:53;;;;;;;28.55;18.20;;;12.10;44.20;;;;;;5106316;28;20043;-73
2022/03/10 11:49:19;;;;;;;27.30;18.20;;;12.30;44.40;;;;;;5080015;28;20048;-73
2022/03/10 11:51:56;;;;;;;26.83;17.80;;;12.50;43.40;;;;;;5105916;28;20089;-73
2022/03/10 11:54:29;;;;;;;30.25;18.50;;;12.80;43.20;;;;;;5080429;28;20154;-73
2022/03/10 11:57:05;;;;;;;29.35;18.23;;;13.00;43.10;;;;;;5122926;27;20051;-73
2022/03/10 11:59:34;;;;;;;29.60;18.90;;;13.20;42.50;;;;;;5095258;28;20066;-73
2022/03/10 12:02:02;;;;;;;28.15;17.00;;;13.30;42.50;;;;;;5094696;28;20050;-73
2022/03/10 12:04:38;;;;;;;30.25;18.63;;;13.50;43.00;;;;;;5105470;28;20157;-73
2022/03/10 12:07:05;;;;;;;27.30;17.85;;;13.60;42.60;;;;;;5082681;28;20043;-73
2022/03/10 12:09:33;;;;;;;27.55;17.52;;;13.70;41.80;;;;;;5108532;28;20046;-73
2022/03/10 12:12:21;;;;;;;27.23;19.10;;;13.70;41.30;;;;;;5124011;27;20126;-73
2022/03/10 12:14:49;;;;;;;27.33;18.07;;;13.70;41.60;;;;;;5122612;27;20494;-73
2022/03/10 12:17:46;;;;;;;29.33;18.57;;;13.80;41.80;;;;;;5095095;28;20316;-73
2022/03/10 12:20:26;;;;;;;27.30;18.10;;;13.90;40.50;;;;;;5122963;27;20316;-73
2022/03/10 12:23:06;;;;;;;30.87;19.03;;;14.00;40.20;;;;;;5077775;28;20277;-73
2022/03/10 12:25:44;;;;;;;30.73;19.17;;;14.00;40.70;;;;;;5092885;28;20309;-73
2022/03/10 12:28:19;;;;;;;27.20;17.83;;;13.80;40.10;;;;;;5083400;28;20277;-73
2022/03/10 12:30:44;;;;;;;;;;;13.60;40.40;;;;;;5123484;27;20273;-73
2022/03/10 12:33:11;;;;;;;27.17;18.13;;;13.50;40.70;;;;;;5081612;28;20327;-73
2022/03/10 12:35:40;;;;;;;27.53;18.33;;;13.50;41.30;;;;;;5090904;28;20044;-73
2022/03/10 12:38:07;;;;;;;31.43;18.73;;;13.50;41.70;;;;;;5082932;28;20281;-73